Terminal Aerodrome Forecast
Issued by NWS

Home | Current Version | Previous Version | Text Only | Print | Product List | Glossary On
Versions: 1 2 3 4 5 6 7 8 9 10 11
000
FTUS46 KSEW 262300
TAFBFI
TAF
KBFI 262320Z 2700/2724 15003KT P6SM SCT010 BKN020 OVC200
     FM270600 15005KT P6SM OVC015
     FM271200 17007KT P6SM -RA OVC010
     FM272000 18010KT P6SM -RA OVC015=

USA.gov is the U.S. government's official web portal to all federal, state and local government web resources and services.